sensor_id;sensor_type;location;lat;lon;timestamp;P1;durP1;ratioP1;P2;durP2;ratioP2
9773;SDS011;4926;42.670;23.316;2023-12-20T00:02:26;65.20;;;45.25;;
9773;SDS011;4926;42.670;23.316;2023-12-20T00:04:54;63.65;;;44.90;;
9773;SDS011;4926;42.670;23.316;2023-12-20T00:07:24;69.82;;;45.28;;
9773;SDS011;4926;42.670;23.316;2023-12-20T00:09:50;69.30;;;46.85;;
9773;SDS011;4926;42.670;23.316;2023-12-20T00:12:17;69.68;;;47.47;;
9773;SDS011;4926;42.670;23.316;2023-12-20T00:14:47;75.72;;;53.35;;
9773;SDS011;4926;42.670;23.316;2023-12-20T00:17:14;87.72;;;57.70;;
9773;SDS011;4926;42.670;23.316;2023-12-20T00:19:41;102.80;;;69.10;;
9773;SDS011;4926;42.670;23.316;2023-12-20T00:22:09;115.15;;;75.70;;
9773;SDS011;4926;42.670;23.316;2023-12-20T00:24:36;114.93;;;74.80;;
9773;SDS011;4926;42.670;23.316;2023-12-20T00:27:03;104.10;;;69.60;;
9773;SDS011;4926;42.670;23.316;2023-12-20T00:29:33;91.30;;;60.15;;
9773;SDS011;4926;42.670;23.316;2023-12-20T00:32:00;96.97;;;61.55;;
9773;SDS011;4926;42.670;23.316;2023-12-20T00:34:27;89.57;;;58.50;;
9773;SDS011;4926;42.670;23.316;2023-12-20T00:36:54;91.13;;;60.55;;
9773;SDS011;4926;42.670;23.316;2023-12-20T00:39:22;94.40;;;55.92;;
9773;SDS011;4926;42.670;23.316;2023-12-20T00:41:49;97.80;;;60.45;;
9773;SDS011;4926;42.670;23.316;2023-12-20T00:44:21;85.47;;;56.40;;
9773;SDS011;4926;42.670;23.316;2023-12-20T00:46:47;83.25;;;54.55;;
9773;SDS011;4926;42.670;23.316;2023-12-20T00:49:14;83.35;;;55.47;;
9773;SDS011;4926;42.670;23.316;2023-12-20T00:51:44;85.60;;;56.00;;
9773;SDS011;4926;42.670;23.316;2023-12-20T00:54:12;85.35;;;54.83;;
9773;SDS011;4926;42.670;23.316;2023-12-20T00:56:40;83.47;;;53.67;;
9773;SDS011;4926;42.670;23.316;2023-12-20T00:59:09;84.97;;;55.35;;
9773;SDS011;4926;42.670;23.316;2023-12-20T01:01:40;87.10;;;57.05;;
9773;SDS011;4926;42.670;23.316;2023-12-20T01:04:07;87.93;;;59.42;;
9773;SDS011;4926;42.670;23.316;2023-12-20T01:06:38;88.57;;;57.58;;
9773;SDS011;4926;42.670;23.316;2023-12-20T01:09:05;93.53;;;59.58;;
9773;SDS011;4926;42.670;23.316;2023-12-20T01:11:32;86.65;;;58.03;;
9773;SDS011;4926;42.670;23.316;2023-12-20T01:14:03;83.28;;;55.72;;
9773;SDS011;4926;42.670;23.316;2023-12-20T01:16:30;86.18;;;57.47;;
9773;SDS011;4926;42.670;23.316;2023-12-20T01:18:57;82.45;;;53.53;;
9773;SDS011;4926;42.670;23.316;2023-12-20T01:21:26;77.72;;;51.50;;
9773;SDS011;4926;42.670;23.316;2023-12-20T01:23:53;78.60;;;51.80;;
9773;SDS011;4926;42.670;23.316;2023-12-20T01:26:20;79.15;;;52.63;;
9773;SDS011;4926;42.670;23.316;2023-12-20T01:28:47;82.35;;;54.17;;
9773;SDS011;4926;42.670;23.316;2023-12-20T01:31:15;78.40;;;51.10;;
9773;SDS011;4926;42.670;23.316;2023-12-20T01:33:42;76.93;;;50.92;;
9773;SDS011;4926;42.670;23.316;2023-12-20T01:36:12;80.13;;;52.72;;
9773;SDS011;4926;42.670;23.316;2023-12-20T01:38:49;74.70;;;51.00;;
9773;SDS011;4926;42.670;23.316;2023-12-20T01:41:18;77.90;;;50.50;;
9773;SDS011;4926;42.670;23.316;2023-12-20T01:43:45;82.50;;;52.38;;
9773;SDS011;4926;42.670;23.316;2023-12-20T01:46:12;75.70;;;51.28;;
9773;SDS011;4926;42.670;23.316;2023-12-20T01:48:40;78.82;;;52.88;;
9773;SDS011;4926;42.670;23.316;2023-12-20T01:53:53;84.32;;;53.25;;
9773;SDS011;4926;42.670;23.316;2023-12-20T01:56:22;80.07;;;54.75;;
9773;SDS011;4926;42.670;23.316;2023-12-20T01:58:53;84.28;;;55.50;;
9773;SDS011;4926;42.670;23.316;2023-12-20T02:01:20;83.03;;;52.50;;
9773;SDS011;4926;42.670;23.316;2023-12-20T02:03:49;80.47;;;52.38;;
9773;SDS011;4926;42.670;23.316;2023-12-20T02:06:17;82.53;;;53.85;;
9773;SDS011;4926;42.670;23.316;2023-12-20T02:08:45;87.28;;;55.40;;
9773;SDS011;4926;42.670;23.316;2023-12-20T02:11:13;83.20;;;54.50;;
9773;SDS011;4926;42.670;23.316;2023-12-20T02:13:40;88.45;;;58.63;;
9773;SDS011;4926;42.670;23.316;2023-12-20T02:16:07;99.07;;;59.30;;
9773;SDS011;4926;42.670;23.316;2023-12-20T02:18:33;94.70;;;62.03;;
9773;SDS011;4926;42.670;23.316;2023-12-20T02:21:02;91.38;;;61.15;;
9773;SDS011;4926;42.670;23.316;2023-12-20T02:23:32;93.47;;;63.25;;
9773;SDS011;4926;42.670;23.316;2023-12-20T02:25:59;102.80;;;66.45;;
9773;SDS011;4926;42.670;23.316;2023-12-20T02:28:27;96.63;;;64.32;;
9773;SDS011;4926;42.670;23.316;2023-12-20T02:30:55;111.40;;;73.20;;
9773;SDS011;4926;42.670;23.316;2023-12-20T02:33:22;113.10;;;73.07;;
9773;SDS011;4926;42.670;23.316;2023-12-20T02:35:49;113.57;;;75.20;;
9773;SDS011;4926;42.670;23.316;2023-12-20T02:38:19;119.82;;;80.53;;
9773;SDS011;4926;42.670;23.316;2023-12-20T02:40:47;128.93;;;84.95;;
9773;SDS011;4926;42.670;23.316;2023-12-20T02:43:14;132.25;;;86.10;;
9773;SDS011;4926;42.670;23.316;2023-12-20T02:45:41;147.02;;;92.82;;
9773;SDS011;4926;42.670;23.316;2023-12-20T02:48:08;138.85;;;91.35;;
9773;SDS011;4926;42.670;23.316;2023-12-20T02:50:47;127.90;;;85.68;;
9773;SDS011;4926;42.670;23.316;2023-12-20T02:53:15;133.55;;;87.32;;
9773;SDS011;4926;42.670;23.316;2023-12-20T02:55:44;134.15;;;90.00;;
9773;SDS011;4926;42.670;23.316;2023-12-20T02:58:12;128.68;;;84.80;;
9773;SDS011;4926;42.670;23.316;2023-12-20T03:00:39;135.38;;;84.40;;
9773;SDS011;4926;42.670;23.316;2023-12-20T03:03:10;126.40;;;81.53;;
9773;SDS011;4926;42.670;23.316;2023-12-20T03:05:39;131.45;;;84.70;;
9773;SDS011;4926;42.670;23.316;2023-12-20T03:08:11;119.72;;;80.05;;
9773;SDS011;4926;42.670;23.316;2023-12-20T03:10:38;133.60;;;82.75;;
9773;SDS011;4926;42.670;23.316;2023-12-20T03:13:05;121.45;;;79.82;;
9773;SDS011;4926;42.670;23.316;2023-12-20T03:15:38;124.97;;;84.50;;
9773;SDS011;4926;42.670;23.316;2023-12-20T03:18:05;136.70;;;87.90;;
9773;SDS011;4926;42.670;23.316;2023-12-20T03:20:35;143.75;;;93.97;;
9773;SDS011;4926;42.670;23.316;2023-12-20T03:23:02;152.38;;;99.35;;
9773;SDS011;4926;42.670;23.316;2023-12-20T03:25:32;151.15;;;98.53;;
9773;SDS011;4926;42.670;23.316;2023-12-20T03:27:59;168.02;;;103.07;;
9773;SDS011;4926;42.670;23.316;2023-12-20T03:30:26;157.40;;;101.95;;
9773;SDS011;4926;42.670;23.316;2023-12-20T03:32:57;152.93;;;97.10;;
9773;SDS011;4926;42.670;23.316;2023-12-20T03:35:26;148.60;;;96.55;;
9773;SDS011;4926;42.670;23.316;2023-12-20T03:37:53;126.40;;;84.13;;
9773;SDS011;4926;42.670;23.316;2023-12-20T03:40:19;136.10;;;87.90;;
9773;SDS011;4926;42.670;23.316;2023-12-20T03:42:47;126.85;;;84.22;;
9773;SDS011;4926;42.670;23.316;2023-12-20T03:45:14;142.20;;;89.32;;
9773;SDS011;4926;42.670;23.316;2023-12-20T03:47:43;112.55;;;71.88;;
9773;SDS011;4926;42.670;23.316;2023-12-20T03:50:12;100.93;;;59.65;;
9773;SDS011;4926;42.670;23.316;2023-12-20T03:52:39;81.13;;;54.42;;
9773;SDS011;4926;42.670;23.316;2023-12-20T03:55:06;89.72;;;56.20;;
9773;SDS011;4926;42.670;23.316;2023-12-20T03:57:35;85.97;;;56.65;;
9773;SDS011;4926;42.670;23.316;2023-12-20T04:00:02;90.40;;;57.33;;
9773;SDS011;4926;42.670;23.316;2023-12-20T04:02:30;90.03;;;57.42;;
9773;SDS011;4926;42.670;23.316;2023-12-20T04:04:57;97.78;;;63.13;;
9773;SDS011;4926;42.670;23.316;2023-12-20T04:07:25;93.53;;;61.15;;
9773;SDS011;4926;42.670;23.316;2023-12-20T04:09:52;99.57;;;62.75;;
9773;SDS011;4926;42.670;23.316;2023-12-20T04:12:19;84.68;;;53.60;;
9773;SDS011;4926;42.670;23.316;2023-12-20T04:14:49;99.63;;;59.38;;
9773;SDS011;4926;42.670;23.316;2023-12-20T04:17:16;112.68;;;72.20;;
9773;SDS011;4926;42.670;23.316;2023-12-20T04:19:43;102.50;;;67.30;;
9773;SDS011;4926;42.670;23.316;2023-12-20T04:22:12;105.47;;;67.55;;
9773;SDS011;4926;42.670;23.316;2023-12-20T04:24:40;112.10;;;70.65;;
9773;SDS011;4926;42.670;23.316;2023-12-20T04:27:08;100.15;;;62.47;;
9773;SDS011;4926;42.670;23.316;2023-12-20T04:29:35;114.00;;;71.55;;
9773;SDS011;4926;42.670;23.316;2023-12-20T04:32:03;111.75;;;70.63;;
9773;SDS011;4926;42.670;23.316;2023-12-20T04:34:35;107.40;;;68.20;;
9773;SDS011;4926;42.670;23.316;2023-12-20T04:37:03;110.18;;;66.90;;
9773;SDS011;4926;42.670;23.316;2023-12-20T04:39:30;105.68;;;67.00;;
9773;SDS011;4926;42.670;23.316;2023-12-20T04:42:07;103.90;;;65.22;;
9773;SDS011;4926;42.670;23.316;2023-12-20T04:44:37;102.70;;;62.53;;
9773;SDS011;4926;42.670;23.316;2023-12-20T04:47:04;106.55;;;68.18;;
9773;SDS011;4926;42.670;23.316;2023-12-20T04:49:31;121.53;;;75.68;;
9773;SDS011;4926;42.670;23.316;2023-12-20T04:51:58;118.13;;;75.97;;
9773;SDS011;4926;42.670;23.316;2023-12-20T04:54:26;128.68;;;82.97;;
9773;SDS011;4926;42.670;23.316;2023-12-20T04:56:53;131.90;;;84.68;;
9773;SDS011;4926;42.670;23.316;2023-12-20T04:59:21;131.90;;;82.45;;
9773;SDS011;4926;42.670;23.316;2023-12-20T05:01:48;134.82;;;81.82;;
9773;SDS011;4926;42.670;23.316;2023-12-20T05:04:15;135.20;;;80.82;;
9773;SDS011;4926;42.670;23.316;2023-12-20T05:06:42;126.90;;;75.03;;
9773;SDS011;4926;42.670;23.316;2023-12-20T05:09:08;125.63;;;71.88;;
9773;SDS011;4926;42.670;23.316;2023-12-20T05:11:36;119.00;;;72.95;;
9773;SDS011;4926;42.670;23.316;2023-12-20T05:14:03;116.05;;;73.78;;
9773;SDS011;4926;42.670;23.316;2023-12-20T05:16:32;124.40;;;78.10;;
9773;SDS011;4926;42.670;23.316;2023-12-20T05:18:59;128.68;;;77.45;;
9773;SDS011;4926;42.670;23.316;2023-12-20T05:21:31;122.05;;;73.82;;
9773;SDS011;4926;42.670;23.316;2023-12-20T05:23:58;117.10;;;72.22;;
9773;SDS011;4926;42.670;23.316;2023-12-20T05:26:26;128.30;;;73.88;;
9773;SDS011;4926;42.670;23.316;2023-12-20T05:28:54;116.28;;;69.88;;
9773;SDS011;4926;42.670;23.316;2023-12-20T05:31:21;99.50;;;63.88;;
9773;SDS011;4926;42.670;23.316;2023-12-20T05:33:50;105.57;;;65.57;;
9773;SDS011;4926;42.670;23.316;2023-12-20T05:36:19;96.20;;;60.67;;
9773;SDS011;4926;42.670;23.316;2023-12-20T05:38:46;95.60;;;59.20;;
9773;SDS011;4926;42.670;23.316;2023-12-20T05:41:13;100.72;;;62.50;;
9773;SDS011;4926;42.670;23.316;2023-12-20T05:43:45;121.60;;;62.88;;
9773;SDS011;4926;42.670;23.316;2023-12-20T05:46:12;132.60;;;64.30;;
9773;SDS011;4926;42.670;23.316;2023-12-20T05:48:39;119.72;;;59.58;;
9773;SDS011;4926;42.670;23.316;2023-12-20T05:51:07;103.53;;;59.75;;
9773;SDS011;4926;42.670;23.316;2023-12-20T05:53:37;102.55;;;58.10;;
9773;SDS011;4926;42.670;23.316;2023-12-20T05:56:07;133.02;;;59.58;;
9773;SDS011;4926;42.670;23.316;2023-12-20T05:58:35;107.85;;;57.47;;
9773;SDS011;4926;42.670;23.316;2023-12-20T06:01:03;117.60;;;58.75;;
9773;SDS011;4926;42.670;23.316;2023-12-20T06:03:32;106.70;;;58.78;;
9773;SDS011;4926;42.670;23.316;2023-12-20T06:05:59;285.88;;;72.05;;
9773;SDS011;4926;42.670;23.316;2023-12-20T06:08:32;118.47;;;59.90;;
9773;SDS011;4926;42.670;23.316;2023-12-20T06:10:59;153.45;;;63.35;;
9773;SDS011;4926;42.670;23.316;2023-12-20T06:13:27;147.85;;;61.40;;
9773;SDS011;4926;42.670;23.316;2023-12-20T06:15:54;117.30;;;61.17;;
9773;SDS011;4926;42.670;23.316;2023-12-20T06:18:21;122.57;;;62.70;;
9773;SDS011;4926;42.670;23.316;2023-12-20T06:20:49;110.30;;;62.83;;
9773;SDS011;4926;42.670;23.316;2023-12-20T06:23:16;152.18;;;66.72;;
9773;SDS011;4926;42.670;23.316;2023-12-20T06:25:47;160.85;;;66.20;;
9773;SDS011;4926;42.670;23.316;2023-12-20T06:28:14;122.43;;;61.78;;
9773;SDS011;4926;42.670;23.316;2023-12-20T06:30:41;174.30;;;71.32;;
9773;SDS011;4926;42.670;23.316;2023-12-20T06:33:08;169.43;;;68.55;;
9773;SDS011;4926;42.670;23.316;2023-12-20T06:35:36;119.43;;;66.15;;
9773;SDS011;4926;42.670;23.316;2023-12-20T06:38:05;229.50;;;73.00;;
9773;SDS011;4926;42.670;23.316;2023-12-20T06:40:33;163.23;;;70.72;;
9773;SDS011;4926;42.670;23.316;2023-12-20T06:43:04;234.65;;;72.90;;
9773;SDS011;4926;42.670;23.316;2023-12-20T06:45:32;144.43;;;66.25;;
9773;SDS011;4926;42.670;23.316;2023-12-20T06:47:59;139.07;;;65.82;;
9773;SDS011;4926;42.670;23.316;2023-12-20T06:50:25;140.18;;;66.82;;
9773;SDS011;4926;42.670;23.316;2023-12-20T06:52:55;192.98;;;75.88;;
9773;SDS011;4926;42.670;23.316;2023-12-20T06:55:22;128.10;;;67.25;;
9773;SDS011;4926;42.670;23.316;2023-12-20T06:57:49;125.15;;;64.85;;
9773;SDS011;4926;42.670;23.316;2023-12-20T07:00:19;139.05;;;66.25;;
9773;SDS011;4926;42.670;23.316;2023-12-20T07:02:48;126.07;;;65.35;;
9773;SDS011;4926;42.670;23.316;2023-12-20T07:05:16;173.43;;;71.00;;
9773;SDS011;4926;42.670;23.316;2023-12-20T07:07:45;120.57;;;62.88;;
9773;SDS011;4926;42.670;23.316;2023-12-20T07:10:15;145.25;;;69.50;;
9773;SDS011;4926;42.670;23.316;2023-12-20T07:12:44;133.60;;;72.10;;
9773;SDS011;4926;42.670;23.316;2023-12-20T07:15:14;130.60;;;69.10;;
9773;SDS011;4926;42.670;23.316;2023-12-20T07:17:43;151.18;;;70.10;;
9773;SDS011;4926;42.670;23.316;2023-12-20T07:20:12;124.47;;;65.15;;
9773;SDS011;4926;42.670;23.316;2023-12-20T07:22:39;122.00;;;66.57;;
9773;SDS011;4926;42.670;23.316;2023-12-20T07:25:06;122.80;;;68.25;;
9773;SDS011;4926;42.670;23.316;2023-12-20T07:27:34;117.53;;;65.22;;
9773;SDS011;4926;42.670;23.316;2023-12-20T07:30:01;135.32;;;68.88;;
9773;SDS011;4926;42.670;23.316;2023-12-20T07:32:28;131.85;;;69.43;;
9773;SDS011;4926;42.670;23.316;2023-12-20T07:34:56;131.68;;;71.43;;
9773;SDS011;4926;42.670;23.316;2023-12-20T07:37:23;141.80;;;71.68;;
9773;SDS011;4926;42.670;23.316;2023-12-20T07:39:50;132.68;;;68.10;;
9773;SDS011;4926;42.670;23.316;2023-12-20T07:42:17;138.63;;;71.95;;
9773;SDS011;4926;42.670;23.316;2023-12-20T07:44:43;130.05;;;70.68;;
9773;SDS011;4926;42.670;23.316;2023-12-20T07:47:10;136.27;;;70.03;;
9773;SDS011;4926;42.670;23.316;2023-12-20T07:49:40;129.60;;;67.20;;
9773;SDS011;4926;42.670;23.316;2023-12-20T07:52:09;124.35;;;65.30;;
9773;SDS011;4926;42.670;23.316;2023-12-20T07:54:43;137.20;;;72.90;;
9773;SDS011;4926;42.670;23.316;2023-12-20T07:57:10;140.63;;;70.15;;
9773;SDS011;4926;42.670;23.316;2023-12-20T07:59:37;144.10;;;71.68;;
9773;SDS011;4926;42.670;23.316;2023-12-20T08:02:04;143.23;;;74.13;;
9773;SDS011;4926;42.670;23.316;2023-12-20T08:04:32;136.10;;;73.18;;
9773;SDS011;4926;42.670;23.316;2023-12-20T08:06:59;135.93;;;72.43;;
9773;SDS011;4926;42.670;23.316;2023-12-20T08:09:30;138.13;;;74.65;;
9773;SDS011;4926;42.670;23.316;2023-12-20T08:11:57;134.90;;;73.72;;
9773;SDS011;4926;42.670;23.316;2023-12-20T08:14:25;136.25;;;74.35;;
9773;SDS011;4926;42.670;23.316;2023-12-20T08:16:52;124.43;;;70.20;;
9773;SDS011;4926;42.670;23.316;2023-12-20T08:19:19;135.30;;;72.07;;
9773;SDS011;4926;42.670;23.316;2023-12-20T08:21:46;133.65;;;73.10;;
9773;SDS011;4926;42.670;23.316;2023-12-20T08:24:15;142.30;;;80.93;;
9773;SDS011;4926;42.670;23.316;2023-12-20T08:26:43;139.52;;;76.15;;
9773;SDS011;4926;42.670;23.316;2023-12-20T08:29:12;141.68;;;78.07;;
9773;SDS011;4926;42.670;23.316;2023-12-20T08:31:41;136.68;;;74.50;;
9773;SDS011;4926;42.670;23.316;2023-12-20T08:34:08;135.70;;;72.63;;
9773;SDS011;4926;42.670;23.316;2023-12-20T08:36:37;120.30;;;69.43;;
9773;SDS011;4926;42.670;23.316;2023-12-20T08:39:03;124.03;;;71.57;;
9773;SDS011;4926;42.670;23.316;2023-12-20T08:41:32;131.00;;;72.80;;
9773;SDS011;4926;42.670;23.316;2023-12-20T08:44:00;130.90;;;71.03;;
9773;SDS011;4926;42.670;23.316;2023-12-20T08:46:30;131.23;;;72.15;;
9773;SDS011;4926;42.670;23.316;2023-12-20T08:48:57;136.13;;;70.65;;
9773;SDS011;4926;42.670;23.316;2023-12-20T08:51:24;126.30;;;69.43;;
9773;SDS011;4926;42.670;23.316;2023-12-20T08:53:51;137.35;;;73.75;;
9773;SDS011;4926;42.670;23.316;2023-12-20T08:56:18;135.73;;;73.68;;
9773;SDS011;4926;42.670;23.316;2023-12-20T08:58:45;135.20;;;72.55;;
9773;SDS011;4926;42.670;23.316;2023-12-20T09:01:14;134.23;;;74.60;;
9773;SDS011;4926;42.670;23.316;2023-12-20T09:03:41;134.15;;;73.50;;
9773;SDS011;4926;42.670;23.316;2023-12-20T09:06:08;131.43;;;74.78;;
9773;SDS011;4926;42.670;23.316;2023-12-20T09:08:35;139.20;;;75.22;;
9773;SDS011;4926;42.670;23.316;2023-12-20T09:11:02;128.35;;;72.03;;
9773;SDS011;4926;42.670;23.316;2023-12-20T09:13:29;122.55;;;72.35;;
9773;SDS011;4926;42.670;23.316;2023-12-20T09:15:57;128.82;;;75.60;;
9773;SDS011;4926;42.670;23.316;2023-12-20T09:18:28;129.50;;;74.05;;
9773;SDS011;4926;42.670;23.316;2023-12-20T09:20:55;130.50;;;73.63;;
9773;SDS011;4926;42.670;23.316;2023-12-20T09:23:22;122.63;;;71.43;;
9773;SDS011;4926;42.670;23.316;2023-12-20T09:25:49;127.85;;;70.93;;
9773;SDS011;4926;42.670;23.316;2023-12-20T09:28:16;121.43;;;71.05;;
9773;SDS011;4926;42.670;23.316;2023-12-20T09:30:44;123.32;;;72.70;;
9773;SDS011;4926;42.670;23.316;2023-12-20T09:33:12;124.07;;;71.43;;
9773;SDS011;4926;42.670;23.316;2023-12-20T09:35:42;118.43;;;70.65;;
9773;SDS011;4926;42.670;23.316;2023-12-20T09:38:09;124.50;;;72.18;;
9773;SDS011;4926;42.670;23.316;2023-12-20T09:40:38;119.25;;;69.75;;
9773;SDS011;4926;42.670;23.316;2023-12-20T09:43:10;113.72;;;69.70;;
9773;SDS011;4926;42.670;23.316;2023-12-20T09:45:43;106.50;;;63.45;;
9773;SDS011;4926;42.670;23.316;2023-12-20T09:48:13;100.25;;;62.67;;
9773;SDS011;4926;42.670;23.316;2023-12-20T09:50:40;97.72;;;60.75;;
9773;SDS011;4926;42.670;23.316;2023-12-20T09:53:10;95.78;;;59.78;;
9773;SDS011;4926;42.670;23.316;2023-12-20T09:55:41;92.50;;;57.40;;
9773;SDS011;4926;42.670;23.316;2023-12-20T09:58:08;90.57;;;57.00;;
9773;SDS011;4926;42.670;23.316;2023-12-20T10:00:37;84.30;;;53.83;;
9773;SDS011;4926;42.670;23.316;2023-12-20T10:03:04;90.10;;;55.22;;
9773;SDS011;4926;42.670;23.316;2023-12-20T10:05:33;97.03;;;55.45;;
9773;SDS011;4926;42.670;23.316;2023-12-20T10:08:02;94.35;;;54.72;;
9773;SDS011;4926;42.670;23.316;2023-12-20T10:10:29;98.40;;;55.60;;
9773;SDS011;4926;42.670;23.316;2023-12-20T10:13:02;96.72;;;56.75;;
9773;SDS011;4926;42.670;23.316;2023-12-20T10:15:34;102.30;;;56.28;;
9773;SDS011;4926;42.670;23.316;2023-12-20T10:18:03;92.80;;;55.55;;
9773;SDS011;4926;42.670;23.316;2023-12-20T10:20:33;99.05;;;55.22;;
9773;SDS011;4926;42.670;23.316;2023-12-20T10:23:02;94.93;;;54.58;;
9773;SDS011;4926;42.670;23.316;2023-12-20T10:25:29;97.80;;;56.13;;
9773;SDS011;4926;42.670;23.316;2023-12-20T10:28:09;100.72;;;57.72;;
9773;SDS011;4926;42.670;23.316;2023-12-20T10:30:39;99.82;;;55.72;;
9773;SDS011;4926;42.670;23.316;2023-12-20T10:33:09;98.68;;;57.00;;
9773;SDS011;4926;42.670;23.316;2023-12-20T10:35:36;99.78;;;56.35;;
9773;SDS011;4926;42.670;23.316;2023-12-20T10:38:06;107.82;;;57.30;;
9773;SDS011;4926;42.670;23.316;2023-12-20T10:40:34;102.20;;;58.38;;
9773;SDS011;4926;42.670;23.316;2023-12-20T10:43:03;97.93;;;59.60;;
9773;SDS011;4926;42.670;23.316;2023-12-20T10:45:30;100.20;;;58.75;;
9773;SDS011;4926;42.670;23.316;2023-12-20T10:47:57;98.20;;;60.28;;
9773;SDS011;4926;42.670;23.316;2023-12-20T10:50:26;104.93;;;60.08;;
9773;SDS011;4926;42.670;23.316;2023-12-20T10:52:54;105.03;;;60.95;;
9773;SDS011;4926;42.670;23.316;2023-12-20T10:55:23;103.68;;;59.78;;
9773;SDS011;4926;42.670;23.316;2023-12-20T10:57:50;109.50;;;62.60;;
9773;SDS011;4926;42.670;23.316;2023-12-20T11:00:21;105.50;;;58.88;;
9773;SDS011;4926;42.670;23.316;2023-12-20T11:02:49;111.70;;;61.50;;
9773;SDS011;4926;42.670;23.316;2023-12-20T11:05:24;114.10;;;63.50;;
9773;SDS011;4926;42.670;23.316;2023-12-20T11:07:58;111.18;;;61.10;;
9773;SDS011;4926;42.670;23.316;2023-12-20T11:10:31;116.45;;;61.97;;
9773;SDS011;4926;42.670;23.316;2023-12-20T11:13:10;114.35;;;62.20;;
9773;SDS011;4926;42.670;23.316;2023-12-20T11:15:45;119.43;;;63.67;;
9773;SDS011;4926;42.670;23.316;2023-12-20T11:18:15;114.57;;;63.63;;
9773;SDS011;4926;42.670;23.316;2023-12-20T11:20:42;107.85;;;61.00;;
9773;SDS011;4926;42.670;23.316;2023-12-20T11:23:09;114.13;;;62.13;;
9773;SDS011;4926;42.670;23.316;2023-12-20T11:25:47;110.60;;;59.90;;
9773;SDS011;4926;42.670;23.316;2023-12-20T11:28:20;121.22;;;62.58;;
9773;SDS011;4926;42.670;23.316;2023-12-20T11:30:48;114.40;;;60.20;;
9773;SDS011;4926;42.670;23.316;2023-12-20T11:33:17;116.22;;;61.22;;
9773;SDS011;4926;42.670;23.316;2023-12-20T11:35:48;118.45;;;62.85;;
9773;SDS011;4926;42.670;23.316;2023-12-20T11:38:15;122.00;;;63.10;;
9773;SDS011;4926;42.670;23.316;2023-12-20T11:40:42;112.20;;;60.97;;
9773;SDS011;4926;42.670;23.316;2023-12-20T11:43:11;123.75;;;61.13;;
9773;SDS011;4926;42.670;23.316;2023-12-20T11:45:38;108.20;;;60.00;;
9773;SDS011;4926;42.670;23.316;2023-12-20T11:48:16;116.82;;;60.97;;
9773;SDS011;4926;42.670;23.316;2023-12-20T11:50:44;116.25;;;61.45;;
9773;SDS011;4926;42.670;23.316;2023-12-20T11:53:11;121.65;;;62.88;;
9773;SDS011;4926;42.670;23.316;2023-12-20T11:55:38;124.82;;;62.17;;
9773;SDS011;4926;42.670;23.316;2023-12-20T11:58:05;122.75;;;60.65;;
9773;SDS011;4926;42.670;23.316;2023-12-20T12:00:35;127.60;;;64.47;;
9773;SDS011;4926;42.670;23.316;2023-12-20T12:03:02;125.47;;;65.85;;
9773;SDS011;4926;42.670;23.316;2023-12-20T12:05:30;114.85;;;61.92;;
9773;SDS011;4926;42.670;23.316;2023-12-20T12:07:58;93.68;;;55.13;;
9773;SDS011;4926;42.670;23.316;2023-12-20T12:10:25;93.55;;;52.40;;
9773;SDS011;4926;42.670;23.316;2023-12-20T12:12:51;97.30;;;55.67;;
9773;SDS011;4926;42.670;23.316;2023-12-20T12:15:20;88.47;;;52.33;;
9773;SDS011;4926;42.670;23.316;2023-12-20T12:17:54;99.80;;;56.63;;
9773;SDS011;4926;42.670;23.316;2023-12-20T12:20:24;112.50;;;61.55;;
9773;SDS011;4926;42.670;23.316;2023-12-20T12:22:57;102.97;;;57.75;;
9773;SDS011;4926;42.670;23.316;2023-12-20T12:25:28;106.22;;;59.90;;
9773;SDS011;4926;42.670;23.316;2023-12-20T12:27:56;106.45;;;60.58;;
9773;SDS011;4926;42.670;23.316;2023-12-20T12:30:23;108.53;;;59.40;;
9773;SDS011;4926;42.670;23.316;2023-12-20T12:32:55;109.88;;;60.40;;
9773;SDS011;4926;42.670;23.316;2023-12-20T12:35:26;102.38;;;58.75;;
9773;SDS011;4926;42.670;23.316;2023-12-20T12:37:53;103.38;;;61.63;;
9773;SDS011;4926;42.670;23.316;2023-12-20T12:40:20;110.35;;;61.63;;
9773;SDS011;4926;42.670;23.316;2023-12-20T12:42:46;114.03;;;60.53;;
9773;SDS011;4926;42.670;23.316;2023-12-20T12:45:15;114.20;;;62.22;;
9773;SDS011;4926;42.670;23.316;2023-12-20T12:47:44;114.20;;;65.63;;
9773;SDS011;4926;42.670;23.316;2023-12-20T12:50:13;116.10;;;63.35;;
9773;SDS011;4926;42.670;23.316;2023-12-20T12:52:40;117.90;;;64.28;;
9773;SDS011;4926;42.670;23.316;2023-12-20T12:55:07;115.75;;;62.25;;
9773;SDS011;4926;42.670;23.316;2023-12-20T12:57:34;116.35;;;64.18;;
9773;SDS011;4926;42.670;23.316;2023-12-20T13:00:01;117.35;;;62.33;;
9773;SDS011;4926;42.670;23.316;2023-12-20T13:02:30;123.43;;;65.40;;
9773;SDS011;4926;42.670;23.316;2023-12-20T13:04:57;122.90;;;65.30;;
9773;SDS011;4926;42.670;23.316;2023-12-20T13:07:27;127.60;;;71.25;;
9773;SDS011;4926;42.670;23.316;2023-12-20T13:09:54;123.60;;;66.50;;
9773;SDS011;4926;42.670;23.316;2023-12-20T13:12:21;114.63;;;64.10;;
9773;SDS011;4926;42.670;23.316;2023-12-20T13:14:48;124.65;;;67.25;;
9773;SDS011;4926;42.670;23.316;2023-12-20T13:17:15;115.85;;;65.95;;
9773;SDS011;4926;42.670;23.316;2023-12-20T13:19:42;119.72;;;65.90;;
9773;SDS011;4926;42.670;23.316;2023-12-20T13:22:09;116.45;;;65.50;;
9773;SDS011;4926;42.670;23.316;2023-12-20T13:24:42;117.60;;;66.47;;
9773;SDS011;4926;42.670;23.316;2023-12-20T13:27:10;118.35;;;62.22;;
9773;SDS011;4926;42.670;23.316;2023-12-20T13:29:37;115.53;;;63.33;;
9773;SDS011;4926;42.670;23.316;2023-12-20T13:32:04;113.25;;;61.30;;
9773;SDS011;4926;42.670;23.316;2023-12-20T13:34:31;121.03;;;64.40;;
9773;SDS011;4926;42.670;23.316;2023-12-20T13:37:00;123.45;;;67.00;;
9773;SDS011;4926;42.670;23.316;2023-12-20T13:39:29;123.18;;;66.72;;
9773;SDS011;4926;42.670;23.316;2023-12-20T13:41:58;121.90;;;66.60;;
9773;SDS011;4926;42.670;23.316;2023-12-20T13:44:25;129.82;;;67.28;;
9773;SDS011;4926;42.670;23.316;2023-12-20T13:46:52;130.98;;;70.07;;
9773;SDS011;4926;42.670;23.316;2023-12-20T13:49:19;129.73;;;68.57;;
9773;SDS011;4926;42.670;23.316;2023-12-20T13:51:46;130.02;;;70.28;;
9773;SDS011;4926;42.670;23.316;2023-12-20T13:54:13;139.68;;;73.55;;
9773;SDS011;4926;42.670;23.316;2023-12-20T13:56:41;142.70;;;73.40;;
9773;SDS011;4926;42.670;23.316;2023-12-20T13:59:12;128.63;;;72.10;;
9773;SDS011;4926;42.670;23.316;2023-12-20T14:01:39;135.90;;;71.88;;
9773;SDS011;4926;42.670;23.316;2023-12-20T14:04:08;142.13;;;71.15;;
9773;SDS011;4926;42.670;23.316;2023-12-20T14:06:36;139.70;;;72.05;;
9773;SDS011;4926;42.670;23.316;2023-12-20T14:09:06;144.02;;;72.35;;
9773;SDS011;4926;42.670;23.316;2023-12-20T14:11:33;147.57;;;75.95;;
9773;SDS011;4926;42.670;23.316;2023-12-20T14:14:06;136.63;;;70.47;;
9773;SDS011;4926;42.670;23.316;2023-12-20T14:16:34;150.02;;;74.85;;
9773;SDS011;4926;42.670;23.316;2023-12-20T14:19:01;136.82;;;72.53;;
9773;SDS011;4926;42.670;23.316;2023-12-20T14:21:28;145.77;;;74.75;;
9773;SDS011;4926;42.670;23.316;2023-12-20T14:23:55;143.15;;;70.50;;
9773;SDS011;4926;42.670;23.316;2023-12-20T14:26:23;135.10;;;67.70;;
9773;SDS011;4926;42.670;23.316;2023-12-20T14:28:50;132.00;;;70.35;;
9773;SDS011;4926;42.670;23.316;2023-12-20T14:31:18;131.88;;;69.18;;
9773;SDS011;4926;42.670;23.316;2023-12-20T14:33:46;121.68;;;68.07;;
9773;SDS011;4926;42.670;23.316;2023-12-20T14:36:15;133.95;;;69.35;;